Time;durP1;ratioP1;P1;durP2;ratioP2;P2;SDS_P1;SDS_P2;PMS_P1;PMS_P2;Temp;Humidity;BMP_temperature;BMP_pressure;BME280_temperature;BME280_humidity;BME280_pressure;Samples;Min_cycle;Max_cycle;Signal;HPM_P1;HPM_P2
2023/03/04 00:02:09;;;;;;;;;;;5.10;73.70;;;;;;5015826;28;19914;-82
2023/03/04 00:04:35;;;;;;;;;;;5.10;73.90;;;;;;5017262;28;20385;-82
2023/03/04 00:07:00;;;;;;;;;;;5.10;74.10;;;;;;5015658;28;19968;-82
2023/03/04 00:09:26;;;;;;;;;;;5.10;74.40;;;;;;5021138;28;19917;-82
2023/03/04 00:11:51;;;;;;;;;;;5.10;74.00;;;;;;5010291;28;19922;-83
2023/03/04 00:14:16;;;;;;;;;;;5.10;74.10;;;;;;5017747;28;19925;-82
2023/03/04 00:16:42;;;;;;;;;;;5.10;74.20;;;;;;5025079;28;19917;-82
2023/03/04 00:19:08;;;;;;;;;;;5.10;74.30;;;;;;5009619;28;19937;-82
2023/03/04 00:21:34;;;;;;;;;;;5.30;73.00;;;;;;5018198;28;19913;-83
2023/03/04 00:23:59;;;;;;;;;;;5.40;72.40;;;;;;4999325;28;19916;-82
2023/03/04 00:26:25;;;;;;;;;;;5.30;72.40;;;;;;5012158;28;20287;-82
2023/03/04 00:28:50;;;;;;;;;;;5.30;72.90;;;;;;5008382;28;19924;-82
2023/03/04 00:31:16;;;;;;;;;;;5.30;72.90;;;;;;5006118;28;19945;-83
2023/03/04 00:33:43;;;;;;;;;;;5.30;73.00;;;;;;5016782;28;19914;-83
2023/03/04 00:36:09;;;;;;;;;;;5.30;72.90;;;;;;5008744;28;19941;-82
2023/03/04 00:38:34;;;;;;;;;;;5.20;73.60;;;;;;4999965;28;19917;-82
2023/03/04 00:41:00;;;;;;;;;;;5.20;73.80;;;;;;5018637;28;19916;-82
2023/03/04 00:43:25;;;;;;;;;;;5.20;73.70;;;;;;5026998;28;19956;-83
2023/03/04 00:45:50;;;;;;;;;;;5.20;74.10;;;;;;5008983;28;20291;-83
2023/03/04 00:48:16;;;;;;;;;;;5.20;74.20;;;;;;5014665;28;19917;-83
2023/03/04 00:50:42;;;;;;;;;;;5.20;74.00;;;;;;5028184;28;19917;-83
2023/03/04 00:53:08;;;;;;;;;;;5.20;74.20;;;;;;5021392;28;20299;-83
2023/03/04 00:55:34;;;;;;;;;;;5.20;74.50;;;;;;5016598;28;19913;-82
2023/03/04 00:57:59;;;;;;;;;;;5.10;74.90;;;;;;5002472;28;19918;-82
2023/03/04 01:00:25;;;;;;;;;;;5.30;74.30;;;;;;5016714;28;19968;-83
2023/03/04 01:02:50;;;;;;;;;;;5.30;74.20;;;;;;5017447;28;19924;-83
2023/03/04 01:05:16;;;;;;;;;;;5.30;73.60;;;;;;5014927;28;19913;-83
2023/03/04 01:07:41;;;;;;;;;;;5.30;73.70;;;;;;4998941;28;19919;-83
2023/03/04 01:10:07;;;;;;;;;;;5.30;74.10;;;;;;4999621;28;19937;-82
2023/03/04 01:12:32;;;;;;;;;;;5.30;73.90;;;;;;5025718;28;19918;-82
2023/03/04 01:14:58;;;;;;;;;;;5.30;74.20;;;;;;5018576;28;19918;-83
2023/03/04 01:17:23;;;;;;;;;;;5.30;73.40;;;;;;5018319;28;20059;-82
2023/03/04 01:19:49;;;;;;;;;;;5.50;72.70;;;;;;5007409;28;19924;-82
2023/03/04 01:22:15;;;;;;;;;;;5.30;73.30;;;;;;5036506;28;19921;-82
2023/03/04 01:24:41;;;;;;;;;;;5.30;73.40;;;;;;5027837;28;19960;-82
2023/03/04 01:27:07;;;;;;;;;;;5.20;73.70;;;;;;5021161;28;19917;-83
2023/03/04 01:29:32;;;;;;;;;;;5.30;74.20;;;;;;5023046;28;20305;-82
2023/03/04 01:31:58;;;;;;;;;;;5.30;74.20;;;;;;5013813;28;19913;-82
2023/03/04 01:34:23;;;;;;;;;;;5.30;73.30;;;;;;5020168;28;19913;-83
2023/03/04 01:36:48;;;;;;;;;;;5.40;73.40;;;;;;4993598;28;19913;-82
2023/03/04 01:39:14;;;;;;;;;;;5.30;73.30;;;;;;4996397;28;19929;-82
2023/03/04 01:41:40;;;;;;;;;;;5.30;73.40;;;;;;4997414;28;19925;-82
2023/03/04 01:44:05;;;;;;;;;;;5.40;73.20;;;;;;5014015;28;19923;-82
2023/03/04 01:46:31;;;;;;;;;;;5.40;74.00;;;;;;5013387;28;20448;-82
2023/03/04 01:48:57;;;;;;;;;;;5.30;74.00;;;;;;5015727;28;20315;-82
2023/03/04 01:51:23;;;;;;;;;;;5.30;74.40;;;;;;5023017;28;19917;-82
2023/03/04 01:53:52;;;;;;;;;;;5.30;74.20;;;;;;4997987;28;19913;-82
2023/03/04 01:56:43;;;;;;;;;;;5.30;74.00;;;;;;5016408;28;19967;-82
2023/03/04 01:59:19;;;;;;;;;;;5.30;74.40;;;;;;5000041;28;20283;-83
2023/03/04 02:01:46;;;;;;;;;;;5.30;74.00;;;;;;5003174;28;19963;-82
2023/03/04 02:04:12;;;;;;;;;;;5.40;73.60;;;;;;5012558;28;20430;-82
2023/03/04 02:06:38;;;;;;;;;;;5.50;73.00;;;;;;5005927;28;19977;-83
2023/03/04 02:09:04;;;;;;;;;;;5.40;73.40;;;;;;5016580;28;19917;-83
2023/03/04 02:11:30;;;;;;;;;;;5.30;73.70;;;;;;5005244;28;19917;-83
2023/03/04 02:13:55;;;;;;;;;;;5.30;73.90;;;;;;5025427;28;19967;-82
2023/03/04 02:16:21;;;;;;;;;;;5.40;73.20;;;;;;5006681;28;19917;-82
2023/03/04 02:18:47;;;;;;;;;;;5.50;73.10;;;;;;5002917;28;19913;-82
2023/03/04 02:21:29;;;;;;;;;;;5.40;73.20;;;;;;5013254;28;20370;-82
2023/03/04 02:24:14;;;;;;;;;;;5.50;73.10;;;;;;5014350;28;20282;-82
2023/03/04 02:26:42;;;;;;;;;;;5.50;73.10;;;;;;5008267;28;19913;-83
2023/03/04 02:29:11;;;;;;;;;;;5.50;73.00;;;;;;5000688;28;20063;-83
2023/03/04 02:31:38;;;;;;;;;;;5.50;72.50;;;;;;5016579;28;19920;-83
2023/03/04 02:34:05;;;;;;;;;;;5.60;72.20;;;;;;5025029;28;19921;-83
2023/03/04 02:36:31;;;;;;;;;;;5.60;72.20;;;;;;4991550;28;19920;-83
2023/03/04 02:39:00;;;;;;;;;;;5.50;72.80;;;;;;5016978;28;19921;-83
2023/03/04 02:41:27;;;;;;;;;;;5.40;72.90;;;;;;4999347;28;19926;-83
2023/03/04 02:43:54;;;;;;;;;;;5.50;72.80;;;;;;5017427;28;19917;-83
2023/03/04 02:46:22;;;;;;;;;;;5.60;72.70;;;;;;4998271;28;22577;-82
2023/03/04 02:48:48;;;;;;;;;;;5.40;73.10;;;;;;5016134;28;19917;-84
2023/03/04 02:51:13;;;;;;;;;;;5.40;73.40;;;;;;5006931;28;20267;-82
2023/03/04 02:53:39;;;;;;;;;;;5.40;73.40;;;;;;5016254;28;20000;-83
2023/03/04 02:56:04;;;;;;;;;;;5.40;73.10;;;;;;5022270;28;19924;-83
2023/03/04 02:58:30;;;;;;;;;;;5.40;73.50;;;;;;5009420;28;19914;-83
2023/03/04 03:00:55;;;;;;;;;;;5.60;72.70;;;;;;5022303;28;20578;-83
2023/03/04 03:03:21;;;;;;;;;;;5.60;72.30;;;;;;5007280;28;19924;-83
2023/03/04 03:05:46;;;;;;;;;;;5.60;72.40;;;;;;4994954;28;19924;-83
2023/03/04 03:08:12;;;;;;;;;;;5.40;73.30;;;;;;5011998;28;19918;-84
2023/03/04 03:10:37;;;;;;;;;;;5.40;73.10;;;;;;4999152;28;19918;-84
2023/03/04 03:13:03;;;;;;;;;;;5.40;73.10;;;;;;5009752;28;20358;-84
2023/03/04 03:15:28;;;;;;;;;;;5.40;73.30;;;;;;5003828;28;20294;-83
2023/03/04 03:17:53;;;;;;;;;;;5.30;73.40;;;;;;5017463;28;19913;-83
2023/03/04 03:20:19;;;;;;;;;;;5.40;73.40;;;;;;5016369;28;19948;-83
2023/03/04 03:22:45;;;;;;;;;;;5.40;73.50;;;;;;5013911;28;20169;-83
2023/03/04 03:25:11;;;;;;;;;;;5.40;73.40;;;;;;5000027;28;20004;-83
2023/03/04 03:27:37;;;;;;;;;;;5.50;72.90;;;;;;5016145;28;20283;-84
2023/03/04 03:30:03;;;;;;;;;;;5.50;72.70;;;;;;4999503;28;19917;-83
2023/03/04 03:32:28;;;;;;;;;;;5.50;72.70;;;;;;5015178;28;19913;-84
2023/03/04 03:34:54;;;;;;;;;;;5.40;73.20;;;;;;5017690;28;19914;-84
2023/03/04 03:37:19;;;;;;;;;;;5.50;72.50;;;;;;5022401;28;19919;-83
2023/03/04 03:39:45;;;;;;;;;;;5.60;71.80;;;;;;4996589;28;20004;-83
2023/03/04 03:42:10;;;;;;;;;;;5.50;72.80;;;;;;5024603;28;19922;-83
2023/03/04 03:44:36;;;;;;;;;;;5.40;72.70;;;;;;5012467;28;19914;-84
2023/03/04 03:47:01;;;;;;;;;;;5.40;73.20;;;;;;5011749;28;19944;-83
2023/03/04 03:49:27;;;;;;;;;;;5.40;73.40;;;;;;5007940;28;19921;-83
2023/03/04 03:51:52;;;;;;;;;;;5.30;73.20;;;;;;5002649;28;19918;-83
2023/03/04 03:54:18;;;;;;;;;;;5.20;73.80;;;;;;4999717;28;19913;-84
2023/03/04 03:56:43;;;;;;;;;;;5.30;73.70;;;;;;5019621;28;19914;-83
2023/03/04 03:59:08;;;;;;;;;;;5.40;73.10;;;;;;5010351;28;20024;-83
2023/03/04 04:01:34;;;;;;;;;;;5.50;72.90;;;;;;4996227;28;19959;-83
2023/03/04 04:03:59;;;;;;;;;;;5.40;73.00;;;;;;5017467;28;19940;-83
2023/03/04 04:06:25;;;;;;;;;;;5.40;73.50;;;;;;5021652;28;20291;-84
2023/03/04 04:08:51;;;;;;;;;;;5.40;73.80;;;;;;5000286;28;20291;-84
2023/03/04 04:11:16;;;;;;;;;;;5.50;73.60;;;;;;5002274;28;20004;-84
2023/03/04 04:13:42;;;;;;;;;;;5.40;73.60;;;;;;5027039;28;19922;-84
2023/03/04 04:16:08;;;;;;;;;;;5.50;73.00;;;;;;5014261;28;19956;-84
2023/03/04 04:18:34;;;;;;;;;;;5.40;73.30;;;;;;5007160;28;20298;-83
2023/03/04 04:20:59;;;;;;;;;;;5.30;73.70;;;;;;4998323;28;19918;-84
2023/03/04 04:23:25;;;;;;;;;;;5.30;74.10;;;;;;5000229;28;19975;-83
2023/03/04 04:25:50;;;;;;;;;;;5.30;74.50;;;;;;5017353;28;19914;-82
2023/03/04 04:28:15;;;;;;;;;;;5.30;74.00;;;;;;5016514;28;20288;-82
2023/03/04 04:30:41;;;;;;;;;;;5.50;73.20;;;;;;5007970;28;19914;-83
2023/03/04 04:33:08;;;;;;;;;;;5.40;73.20;;;;;;4998260;28;19956;-83
2023/03/04 04:35:35;;;;;;;;;;;5.50;72.70;;;;;;5005459;28;19924;-82
2023/03/04 04:38:00;;;;;;;;;;;5.40;73.20;;;;;;5029709;28;20271;-83
2023/03/04 04:40:26;;;;;;;;;;;5.50;72.80;;;;;;5002438;28;19914;-82
2023/03/04 04:42:51;;;;;;;;;;;5.50;72.50;;;;;;5001462;28;19940;-82
2023/03/04 04:45:17;;;;;;;;;;;5.50;72.70;;;;;;5015929;28;19993;-82
2023/03/04 04:47:42;;;;;;;;;;;5.40;72.90;;;;;;5012674;28;19922;-82
2023/03/04 04:50:08;;;;;;;;;;;5.40;73.10;;;;;;5014249;28;19918;-83
2023/03/04 04:52:33;;;;;;;;;;;5.30;73.30;;;;;;5021377;28;19913;-83
2023/03/04 04:54:59;;;;;;;;;;;5.40;73.50;;;;;;5019589;28;19917;-82
2023/03/04 04:57:25;;;;;;;;;;;5.30;73.90;;;;;;5024828;28;19986;-82
2023/03/04 04:59:50;;;;;;;;;;;5.40;73.80;;;;;;5008745;28;19920;-83
2023/03/04 05:02:15;;;;;;;;;;;5.40;73.90;;;;;;5009179;28;19917;-83
2023/03/04 05:04:41;;;;;;;;;;;5.30;74.00;;;;;;5002830;28;20367;-83
2023/03/04 05:07:06;;;;;;;;;;;5.50;73.20;;;;;;5027434;28;20004;-82
2023/03/04 05:09:32;;;;;;;;;;;5.40;73.50;;;;;;5007889;28;19921;-82
2023/03/04 05:11:57;;;;;;;;;;;5.40;73.80;;;;;;5002312;28;19925;-82
2023/03/04 05:14:23;;;;;;;;;;;5.40;73.60;;;;;;5016887;28;20011;-82
2023/03/04 05:16:48;;;;;;;;;;;5.50;73.50;;;;;;5014163;28;19913;-84
2023/03/04 05:19:14;;;;;;;;;;;5.40;74.00;;;;;;5016116;28;20080;-83
2023/03/04 05:21:39;;;;;;;;;;;5.40;74.00;;;;;;5012206;28;19924;-83
2023/03/04 05:24:05;;;;;;;;;;;5.30;74.50;;;;;;5019045;28;19942;-83
2023/03/04 05:26:31;;;;;;;;;;;5.30;74.90;;;;;;5021954;28;20494;-83
2023/03/04 05:28:56;;;;;;;;;;;5.30;74.80;;;;;;5019717;28;19928;-83
2023/03/04 05:31:22;;;;;;;;;;;5.30;74.80;;;;;;5011271;28;19937;-83
2023/03/04 05:33:47;;;;;;;;;;;5.30;74.80;;;;;;5014086;28;20005;-83
2023/03/04 05:36:13;;;;;;;;;;;5.30;75.10;;;;;;5004941;28;19922;-83
2023/03/04 05:38:38;;;;;;;;;;;5.30;74.70;;;;;;5008169;28;19913;-83
2023/03/04 05:41:04;;;;;;;;;;;5.30;75.00;;;;;;5036381;28;20322;-82
2023/03/04 05:43:30;;;;;;;;;;;5.40;74.80;;;;;;5014392;28;19957;-82
2023/03/04 05:45:56;;;;;;;;;;;5.40;75.00;;;;;;5008905;28;20730;-83
2023/03/04 05:48:22;;;;;;;;;;;5.60;74.10;;;;;;5026327;28;20015;-83
2023/03/04 05:50:52;;;;;;;;;;;5.40;74.60;;;;;;5016052;28;19947;-82
2023/03/04 05:53:17;;;;;;;;;;;5.50;74.60;;;;;;5011555;28;20386;-82
2023/03/04 05:55:46;;;;;;;;;;;5.40;74.20;;;;;;5013813;28;19925;-83
2023/03/04 05:58:11;;;;;;;;;;;5.40;74.00;;;;;;5013918;28;20338;-82
2023/03/04 06:00:36;;;;;;;;;;;5.40;74.40;;;;;;4996098;28;19967;-83
2023/03/04 06:03:02;;;;;;;;;;;5.50;74.00;;;;;;5011270;28;19917;-82
2023/03/04 06:05:28;;;;;;;;;;;5.50;74.30;;;;;;5027868;28;19953;-84
2023/03/04 06:07:53;;;;;;;;;;;5.50;74.80;;;;;;5044021;28;20381;-85
2023/03/04 06:10:19;;;;;;;;;;;5.50;74.80;;;;;;5025296;28;19941;-85
2023/03/04 06:12:44;;;;;;;;;;;5.30;75.20;;;;;;5002149;28;20387;-83
2023/03/04 06:15:10;;;;;;;;;;;5.40;75.20;;;;;;5026379;28;20378;-84
2023/03/04 06:17:36;;;;;;;;;;;5.50;74.60;;;;;;5014646;28;19913;-84
2023/03/04 06:20:04;;;;;;;;;;;5.50;74.60;;;;;;5017068;28;20359;-82
2023/03/04 06:22:29;;;;;;;;;;;5.60;74.40;;;;;;5014883;28;19952;-85
2023/03/04 06:24:54;;;;;;;;;;;5.50;74.90;;;;;;4997992;28;19929;-85
2023/03/04 06:27:20;;;;;;;;;;;5.40;75.20;;;;;;5015584;28;20283;-85
2023/03/04 06:29:45;;;;;;;;;;;5.40;75.30;;;;;;4998114;28;20380;-86
2023/03/04 06:32:11;;;;;;;;;;;5.50;75.30;;;;;;5023589;28;19913;-87
2023/03/04 06:34:36;;;;;;;;;;;5.50;75.00;;;;;;4997758;28;20000;-84
2023/03/04 06:37:02;;;;;;;;;;;5.40;75.70;;;;;;5019045;28;19913;-83
2023/03/04 06:39:27;;;;;;;;;;;5.40;75.70;;;;;;5016117;28;19921;-83
2023/03/04 06:41:53;;;;;;;;;;;5.50;75.60;;;;;;5004706;28;20401;-82
2023/03/04 06:44:18;;;;;;;;;;;5.50;75.70;;;;;;5028251;28;19963;-83
2023/03/04 06:46:44;;;;;;;;;;;5.50;75.50;;;;;;5010512;28;19922;-83
2023/03/04 06:49:09;;;;;;;;;;;5.50;75.20;;;;;;5004523;28;20008;-83
2023/03/04 06:51:35;;;;;;;;;;;5.50;75.30;;;;;;5011772;28;19914;-83
2023/03/04 06:54:01;;;;;;;;;;;5.50;75.20;;;;;;5003302;28;20154;-83
2023/03/04 06:56:26;;;;;;;;;;;5.40;75.50;;;;;;5010251;28;19948;-83
2023/03/04 06:58:52;;;;;;;;;;;5.40;76.20;;;;;;5001223;28;19920;-83
2023/03/04 07:01:19;;;;;;;;;;;5.50;76.20;;;;;;5007836;28;20366;-83
2023/03/04 07:03:45;;;;;;;;;;;5.50;76.30;;;;;;5003613;28;20370;-83
2023/03/04 07:06:11;;;;;;;;;;;5.40;76.10;;;;;;5002816;28;19960;-82
2023/03/04 07:08:37;;;;;;;;;;;5.60;75.70;;;;;;5027707;28;19928;-83
2023/03/04 07:11:03;;;;;;;;;;;5.50;76.20;;;;;;5024617;28;19913;-83
2023/03/04 07:13:28;;;;;;;;;;;5.40;76.00;;;;;;5001756;28;19925;-82
2023/03/04 07:15:54;;;;;;;;;;;5.50;76.10;;;;;;5021367;28;19930;-83
2023/03/04 07:18:19;;;;;;;;;;;5.50;76.30;;;;;;4999753;28;19910;-82
2023/03/04 07:20:45;;;;;;;;;;;5.40;76.80;;;;;;5002656;28;19921;-82
2023/03/04 07:23:11;;;;;;;;;;;5.60;76.30;;;;;;5008039;28;19918;-83
2023/03/04 07:25:36;;;;;;;;;;;5.60;76.70;;;;;;5002571;28;19924;-83
2023/03/04 07:28:02;;;;;;;;;;;5.60;76.30;;;;;;5021558;28;19948;-82
2023/03/04 07:30:27;;;;;;;;;;;5.70;75.80;;;;;;5011103;28;19929;-83
2023/03/04 07:32:55;;;;;;;;;;;5.80;75.70;;;;;;5016033;28;20001;-83
2023/03/04 07:35:21;;;;;;;;;;;5.70;76.00;;;;;;5001033;28;19914;-83
2023/03/04 07:37:46;;;;;;;;;;;5.60;76.10;;;;;;5000653;28;19914;-83
2023/03/04 07:40:12;;;;;;;;;;;5.70;76.80;;;;;;5010245;28;19920;-82
2023/03/04 07:42:38;;;;;;;;;;;5.70;76.70;;;;;;5022825;28;20003;-82
2023/03/04 07:45:05;;;;;;;;;;;5.70;76.80;;;;;;5014602;28;19922;-82
2023/03/04 07:47:30;;;;;;;;;;;5.70;76.90;;;;;;5014095;28;19923;-82
2023/03/04 07:49:56;;;;;;;;;;;5.60;77.40;;;;;;4991836;28;20525;-82
2023/03/04 07:52:21;;;;;;;;;;;5.60;77.10;;;;;;5002613;28;19969;-82
2023/03/04 07:54:47;;;;;;;;;;;5.70;77.50;;;;;;5014243;28;20290;-83
2023/03/04 07:57:12;;;;;;;;;;;5.80;77.30;;;;;;4996800;28;19975;-84
2023/03/04 07:59:38;;;;;;;;;;;5.70;77.60;;;;;;4997094;28;19920;-83
2023/03/04 08:02:03;;;;;;;;;;;5.70;77.70;;;;;;5013542;23;20516;-81
2023/03/04 08:04:34;;;;;;;;;;;5.90;77.30;;;;;;5033693;28;19913;-81
2023/03/04 08:07:00;;;;;;;;;;;5.80;77.40;;;;;;5018890;28;19924;-80
2023/03/04 08:09:25;;;;;;;;;;;5.70;78.20;;;;;;5019569;28;20384;-80
2023/03/04 08:11:51;;;;;;;;;;;5.70;78.50;;;;;;5017069;28;19920;-81
2023/03/04 08:14:17;;;;;;;;;;;5.60;78.70;;;;;;5004775;28;19983;-82
2023/03/04 08:16:42;;;;;;;;;;;5.80;78.20;;;;;;5015421;28;19917;-81
2023/03/04 08:19:09;;;;;;;;;;;5.80;78.00;;;;;;5013691;28;19993;-82
2023/03/04 08:21:35;;;;;;;;;;;5.90;77.60;;;;;;5005595;28;19953;-82
2023/03/04 08:24:03;;;;;;;;;;;5.90;76.90;;;;;;5016234;28;20000;-83
2023/03/04 08:26:33;;;;;;;;;;;5.90;77.10;;;;;;5049706;28;19920;-80
2023/03/04 08:28:59;;;;;;;;;;;6.00;77.30;;;;;;5015867;28;20019;-81
2023/03/04 08:31:25;;;;;;;;;;;6.10;76.40;;;;;;5024229;28;19920;-82
2023/03/04 08:33:51;;;;;;;;;;;6.00;76.40;;;;;;5016583;28;19941;-83
2023/03/04 08:36:17;;;;;;;;;;;6.00;76.20;;;;;;5024444;28;19914;-83
2023/03/04 08:38:43;;;;;;;;;;;6.10;75.90;;;;;;5028164;28;19940;-82
2023/03/04 08:41:14;;;;;;;;;;;6.30;75.20;;;;;;5045259;28;20568;-84
2023/03/04 08:43:40;;;;;;;;;;;6.40;74.80;;;;;;5009599;28;19924;-82
2023/03/04 08:46:05;;;;;;;;;;;6.50;74.60;;;;;;5042723;28;19913;-82
2023/03/04 08:48:31;;;;;;;;;;;6.50;74.40;;;;;;5017084;28;19944;-83
2023/03/04 08:50:57;;;;;;;;;;;6.50;74.30;;;;;;5010208;28;20027;-82
2023/03/04 08:53:22;;;;;;;;;;;6.50;75.00;;;;;;5012421;28;19945;-82
2023/03/04 08:55:50;;;;;;;;;;;6.50;74.70;;;;;;5033895;28;19914;-84
2023/03/04 08:58:15;;;;;;;;;;;6.50;74.90;;;;;;5025483;28;19928;-83
2023/03/04 09:00:42;;;;;;;;;;;6.70;73.90;;;;;;5028848;28;19917;-83
2023/03/04 09:03:09;;;;;;;;;;;6.80;73.80;;;;;;5031654;28;19925;-82
2023/03/04 09:05:35;;;;;;;;;;;6.90;73.70;;;;;;5043803;28;19924;-83
2023/03/04 09:08:00;;;;;;;;;;;6.80;74.30;;;;;;5020519;28;20229;-82
2023/03/04 09:10:26;;;;;;;;;;;6.80;74.70;;;;;;5010380;28;20297;-82
2023/03/04 09:12:51;;;;;;;;;;;6.90;74.50;;;;;;5008588;28;19914;-81
2023/03/04 09:15:17;;;;;;;;;;;6.90;74.20;;;;;;5027490;28;19910;-82
2023/03/04 09:17:43;;;;;;;;;;;6.80;73.90;;;;;;5053258;28;20308;-82
2023/03/04 09:20:09;;;;;;;;;;;6.90;73.80;;;;;;5033292;28;19972;-81
2023/03/04 09:22:35;;;;;;;;;;;7.00;74.00;;;;;;5023415;28;19920;-82
2023/03/04 09:25:01;;;;;;;;;;;7.00;73.90;;;;;;5055624;28;19922;-82
2023/03/04 09:27:26;;;;;;;;;;;7.10;73.70;;;;;;5011435;28;20383;-82
2023/03/04 09:29:52;;;;;;;;;;;7.10;73.90;;;;;;5022510;28;19996;-82
2023/03/04 09:32:17;;;;;;;;;;;7.00;75.30;;;;;;5020281;28;19913;-82
2023/03/04 09:34:43;;;;;;;;;;;7.00;75.80;;;;;;5027344;28;19918;-82
2023/03/04 09:37:08;;;;;;;;;;;6.90;76.50;;;;;;5014402;28;19964;-82
2023/03/04 09:39:34;;;;;;;;;;;7.00;76.60;;;;;;5012605;28;19913;-83
2023/03/04 09:42:00;;;;;;;;;;;7.10;76.60;;;;;;5015526;28;19917;-83
2023/03/04 09:44:31;;;;;;;;;;;7.10;76.40;;;;;;5015505;28;19920;-83
2023/03/04 09:47:01;;;;;;;;;;;7.00;76.80;;;;;;5016496;28;20001;-82
2023/03/04 09:49:27;;;;;;;;;;;7.10;77.40;;;;;;5017384;28;20281;-84
2023/03/04 09:51:56;;;;;;;;;;;7.10;77.80;;;;;;5014771;28;19929;-83
2023/03/04 09:54:22;;;;;;;;;;;7.10;77.60;;;;;;5002986;28;19913;-82
2023/03/04 09:56:50;;;;;;;;;;;7.10;78.10;;;;;;5021556;28;20011;-83
2023/03/04 09:59:30;;;;;;;;;;;7.00;79.20;;;;;;5041099;28;19921;-84
2023/03/04 10:01:57;;;;;;;;;;;7.00;79.70;;;;;;5001762;28;20008;-83
2023/03/04 10:04:39;;;;;;;;;;;6.90;80.00;;;;;;4996070;28;19921;-83
2023/03/04 10:07:07;;;;;;;;;;;6.90;79.60;;;;;;4987882;28;19976;-83
2023/03/04 10:09:35;;;;;;;;;;;6.70;80.30;;;;;;4982229;28;19929;-83
2023/03/04 10:12:03;;;;;;;;;;;6.90;80.50;;;;;;5007854;28;19918;-83
2023/03/04 10:14:34;;;;;;;;;;;7.00;80.20;;;;;;5009077;28;19918;-84
2023/03/04 10:17:05;;;;;;;;;;;7.10;80.10;;;;;;5017136;28;19966;-84
2023/03/04 10:19:37;;;;;;;;;;;7.20;79.70;;;;;;5031965;28;19902;-84
2023/03/04 10:22:13;;;;;;;;;;;7.20;79.80;;;;;;5011971;28;19917;-84
2023/03/04 10:24:39;;;;;;;;;;;7.30;79.80;;;;;;4993382;28;19937;-83
2023/03/04 10:27:06;;;;;;;;;;;7.40;79.30;;;;;;5006119;28;19909;-84
2023/03/04 10:29:32;;;;;;;;;;;7.40;79.50;;;;;;5015233;28;19940;-84
2023/03/04 10:31:57;;;;;;;;;;;7.40;79.60;;;;;;5031415;28;20438;-84
2023/03/04 10:34:23;;;;;;;;;;;7.30;80.00;;;;;;4994348;28;19914;-84
2023/03/04 10:36:59;;;;;;;;;;;7.20;79.90;;;;;;4996988;28;19914;-83
2023/03/04 10:39:35;;;;;;;;;;;7.10;80.40;;;;;;4994670;28;19913;-86
2023/03/04 10:42:13;;;;;;;;;;;7.10;81.20;;;;;;5027091;28;19933;-83
2023/03/04 10:44:43;;;;;;;;;;;7.30;82.00;;;;;;4996293;28;19949;-84
2023/03/04 10:47:10;;;;;;;;;;;7.30;81.60;;;;;;4988012;28;20002;-83
2023/03/04 10:49:48;;;;;;;;;;;7.30;82.10;;;;;;4991867;28;19925;-84
2023/03/04 10:52:32;;;;;;;;;;;7.10;82.10;;;;;;4998292;28;19914;-84
2023/03/04 10:54:59;;;;;;;;;;;7.30;81.60;;;;;;4989264;28;20625;-83
2023/03/04 10:57:31;;;;;;;;;;;7.20;81.60;;;;;;4997104;28;19910;-84
2023/03/04 11:00:21;;;;;;;;;;;7.20;81.30;;;;;;4987278;28;19914;-83
2023/03/04 11:02:48;;;;;;;;;;;7.10;81.70;;;;;;5006853;28;19921;-85
2023/03/04 11:05:13;;;;;;;;;;;7.20;81.80;;;;;;5013544;28;20427;-84
2023/03/04 11:07:40;;;;;;;;;;;7.30;82.00;;;;;;5020794;28;19917;-84
2023/03/04 11:10:09;;;;;;;;;;;7.30;82.10;;;;;;5014746;28;19917;-84
2023/03/04 11:12:35;;;;;;;;;;;7.20;82.30;;;;;;5035770;28;19913;-85
2023/03/04 11:15:01;;;;;;;;;;;7.30;82.70;;;;;;5051527;28;19922;-84
2023/03/04 11:17:27;;;;;;;;;;;7.40;82.70;;;;;;5044062;28;19928;-85
2023/03/04 11:19:55;;;;;;;;;;;7.40;82.00;;;;;;5001346;28;19939;-86
2023/03/04 11:22:22;;;;;;;;;;;7.40;82.70;;;;;;5000666;28;20270;-85
2023/03/04 11:24:54;;;;;;;;;;;7.50;81.90;;;;;;5026422;28;19922;-83
2023/03/04 11:27:22;;;;;;;;;;;7.60;81.70;;;;;;5006105;28;19913;-80
2023/03/04 11:29:56;;;;;;;;;;;7.50;82.40;;;;;;5024199;28;19920;-82
2023/03/04 11:32:22;;;;;;;;;;;7.60;82.60;;;;;;5008366;28;19955;-83
2023/03/04 11:34:53;;;;;;;;;;;7.60;81.90;;;;;;5003508;28;19918;-83
2023/03/04 11:37:27;;;;;;;;;;;7.70;81.70;;;;;;4998036;28;19913;-80
2023/03/04 11:40:15;;;;;;;;;;;7.70;81.70;;;;;;5038069;28;19917;-84
2023/03/04 11:42:40;;;;;;;;;;;7.80;81.70;;;;;;5002394;28;19972;-82
2023/03/04 11:45:13;;;;;;;;;;;8.00;80.40;;;;;;5006969;28;19949;-82
2023/03/04 11:47:44;;;;;;;;;;;8.10;80.70;;;;;;5010413;28;20016;-82
2023/03/04 11:50:22;;;;;;;;;;;8.20;80.00;;;;;;5033632;28;20340;-83
2023/03/04 11:52:53;;;;;;;;;;;8.20;79.30;;;;;;5009387;28;20284;-83
2023/03/04 11:55:36;;;;;;;;;;;8.10;78.90;;;;;;5015023;28;19920;-83
2023/03/04 11:58:02;;;;;;;;;;;8.00;79.60;;;;;;4996184;28;19931;-82
2023/03/04 12:00:27;;;;;;;;;;;7.90;80.80;;;;;;5005297;28;19913;-82
2023/03/04 12:03:02;;;;;;;;;;;8.00;81.10;;;;;;5013559;28;19964;-85
2023/03/04 12:05:43;;;;;;;;;;;7.90;81.40;;;;;;5022238;28;19920;-83
2023/03/04 12:08:16;;;;;;;;;;;7.90;80.90;;;;;;5059596;28;20426;-83
2023/03/04 12:10:53;;;;;;;;;;;8.00;81.50;;;;;;5021341;28;19968;-84
2023/03/04 12:13:29;;;;;;;;;;;7.90;80.60;;;;;;5041586;28;20012;-83
2023/03/04 12:16:18;;;;;;;;;;;7.90;80.30;;;;;;5018195;28;19964;-83
2023/03/04 12:18:56;;;;;;;;;;;7.70;81.20;;;;;;5018964;28;19924;-83
2023/03/04 12:21:41;;;;;;;;;;;7.70;81.20;;;;;;5047896;28;19913;-82
2023/03/04 12:24:25;;;;;;;;;;;7.70;82.00;;;;;;5036905;28;20653;-82
2023/03/04 12:26:57;;;;;;;;;;;7.70;83.00;;;;;;5045216;28;19913;-82
2023/03/04 12:29:32;;;;;;;;;;;7.90;82.30;;;;;;5016848;28;20439;-84
2023/03/04 12:32:06;;;;;;;;;;;7.90;82.00;;;;;;5037452;28;19940;-83
2023/03/04 12:34:37;;;;;;;;;;;7.90;80.90;;;;;;5022421;28;20076;-82
2023/03/04 12:37:04;;;;;;;;;;;7.80;81.90;;;;;;5026535;28;19945;-82
2023/03/04 12:39:39;;;;;;;;;;;7.90;82.10;;;;;;5036548;28;19915;-80
2023/03/04 12:42:05;;;;;;;;;;;7.80;82.00;;;;;;5028817;28;19921;-80
2023/03/04 12:44:50;;;;;;;;;;;7.70;82.00;;;;;;5044708;28;20514;-80
2023/03/04 12:47:15;;;;;;;;;;;7.70;82.20;;;;;;5025505;28;19925;-83
2023/03/04 12:49:41;;;;;;;;;;;7.60;82.90;;;;;;5023116;28;19932;-82
2023/03/04 12:52:15;;;;;;;;;;;7.50;83.40;;;;;;5028044;28;19941;-81
2023/03/04 12:54:44;;;;;;;;;;;7.50;83.70;;;;;;5015373;28;19934;-82
2023/03/04 12:57:16;;;;;;;;;;;7.30;83.80;;;;;;5034345;28;20055;-82
2023/03/04 12:59:47;;;;;;;;;;;7.30;84.10;;;;;;5035830;28;20058;-84
2023/03/04 13:02:25;;;;;;;;;;;7.20;84.50;;;;;;5030009;28;19944;-81
2023/03/04 13:05:05;;;;;;;;;;;7.30;84.50;;;;;;5028658;28;20329;-82
2023/03/04 13:07:40;;;;;;;;;;;7.30;84.70;;;;;;5035948;28;19911;-82
2023/03/04 13:10:13;;;;;;;;;;;7.10;85.10;;;;;;5032262;28;19917;-82
2023/03/04 13:13:05;;;;;;;;;;;7.10;85.30;;;;;;5022887;28;19944;-82
2023/03/04 13:15:33;;;;;;;;;;;7.10;86.00;;;;;;5028825;28;19913;-82
2023/03/04 13:18:01;;;;;;;;;;;7.20;85.40;;;;;;5043912;28;19913;-82
2023/03/04 13:20:37;;;;;;;;;;;7.50;85.40;;;;;;5060019;28;19909;-82
2023/03/04 13:23:05;;;;;;;;;;;7.60;84.20;;;;;;5017199;28;19921;-83
2023/03/04 13:25:31;;;;;;;;;;;7.60;84.30;;;;;;5032431;28;20395;-82
2023/03/04 13:28:01;;;;;;;;;;;7.70;83.20;;;;;;5037108;28;20004;-82
2023/03/04 13:30:38;;;;;;;;;;;7.60;82.80;;;;;;5033268;28;20315;-82
2023/03/04 13:33:10;;;;;;;;;;;7.60;83.60;;;;;;5026340;28;20288;-82
2023/03/04 13:35:45;;;;;;;;;;;7.60;81.70;;;;;;5032525;28;20020;-83
2023/03/04 13:38:17;;;;;;;;;;;7.50;81.30;;;;;;5052291;28;19913;-83
2023/03/04 13:40:42;;;;;;;;;;;7.40;81.60;;;;;;5053344;28;19920;-84
2023/03/04 13:43:23;;;;;;;;;;;7.30;81.70;;;;;;5039369;28;19909;-84
2023/03/04 13:45:48;;;;;;;;;;;7.30;82.10;;;;;;5051076;28;19989;-83
2023/03/04 13:48:22;;;;;;;;;;;7.30;81.90;;;;;;5055087;28;19905;-82
2023/03/04 13:50:48;;;;;;;;;;;7.40;81.80;;;;;;5026878;28;20377;-83
2023/03/04 13:53:22;;;;;;;;;;;7.30;82.30;;;;;;5054994;28;19919;-82
2023/03/04 13:56:06;;;;;;;;;;;7.50;81.90;;;;;;5029655;28;19920;-82
2023/03/04 13:58:32;;;;;;;;;;;7.70;81.40;;;;;;5041879;28;20004;-82
2023/03/04 14:00:58;;;;;;;;;;;7.80;80.60;;;;;;5020279;28;20494;-82
2023/03/04 14:03:28;;;;;;;;;;;7.90;79.90;;;;;;5007766;28;19917;-81
2023/03/04 14:06:12;;;;;;;;;;;8.00;79.00;;;;;;5010597;28;19913;-81
2023/03/04 14:08:38;;;;;;;;;;;7.80;78.80;;;;;;5059835;28;19918;-82
2023/03/04 14:11:03;;;;;;;;;;;8.00;78.90;;;;;;5031767;28;20395;-81
2023/03/04 14:13:29;;;;;;;;;;;8.00;78.80;;;;;;5018472;28;19970;-82
2023/03/04 14:15:56;;;;;;;;;;;8.00;79.20;;;;;;5052925;28;20284;-82
2023/03/04 14:18:23;;;;;;;;;;;8.10;77.80;;;;;;5038262;28;19913;-82
2023/03/04 14:20:50;;;;;;;;;;;8.00;78.20;;;;;;5012345;28;19945;-81
2023/03/04 14:23:24;;;;;;;;;;;8.00;77.80;;;;;;5013478;28;19977;-80
2023/03/04 14:25:50;;;;;;;;;;;7.90;77.80;;;;;;5033280;28;19921;-81
2023/03/04 14:28:17;;;;;;;;;;;7.80;78.40;;;;;;5034748;28;19978;-81
2023/03/04 14:30:50;;;;;;;;;;;7.80;78.70;;;;;;5018686;28;19978;-81
2023/03/04 14:33:18;;;;;;;;;;;7.90;78.60;;;;;;5028102;28;20387;-81
2023/03/04 14:35:47;;;;;;;;;;;7.90;78.60;;;;;;5031198;28;19923;-81